sensor_id;sensor_type;location;lat;lon;timestamp;temperature;humidity
29479;DHT22;16437;41.836;23.480;2022-07-23T00:02:29;27.40;40.80
29479;DHT22;16437;41.836;23.480;2022-07-23T00:07:55;27.40;40.80
29479;DHT22;16437;41.836;23.480;2022-07-23T00:13:21;27.40;40.70
29479;DHT22;16437;41.836;23.480;2022-07-23T00:18:48;27.30;40.70
29479;DHT22;16437;41.836;23.480;2022-07-23T00:24:15;27.30;40.70
29479;DHT22;16437;41.836;23.480;2022-07-23T00:29:41;27.30;40.60
29479;DHT22;16437;41.836;23.480;2022-07-23T00:35:08;27.30;40.60
29479;DHT22;16437;41.836;23.480;2022-07-23T00:40:34;27.30;40.60
29479;DHT22;16437;41.836;23.480;2022-07-23T00:46:01;27.20;40.60
29479;DHT22;16437;41.836;23.480;2022-07-23T00:51:28;27.30;40.60
29479;DHT22;16437;41.836;23.480;2022-07-23T00:56:54;27.20;40.60
29479;DHT22;16437;41.836;23.480;2022-07-23T01:02:21;27.20;40.60
29479;DHT22;16437;41.836;23.480;2022-07-23T01:07:48;27.20;40.60
29479;DHT22;16437;41.836;23.480;2022-07-23T01:13:15;27.20;40.60
29479;DHT22;16437;41.836;23.480;2022-07-23T01:18:41;27.20;40.70
29479;DHT22;16437;41.836;23.480;2022-07-23T01:24:09;27.20;40.70
29479;DHT22;16437;41.836;23.480;2022-07-23T01:29:35;27.20;40.70
29479;DHT22;16437;41.836;23.480;2022-07-23T01:35:02;27.20;40.70
29479;DHT22;16437;41.836;23.480;2022-07-23T01:40:29;27.10;40.70
29479;DHT22;16437;41.836;23.480;2022-07-23T01:45:56;27.10;40.60
29479;DHT22;16437;41.836;23.480;2022-07-23T01:51:22;27.10;40.60
29479;DHT22;16437;41.836;23.480;2022-07-23T01:56:49;27.10;40.50
29479;DHT22;16437;41.836;23.480;2022-07-23T02:02:15;27.10;40.50
29479;DHT22;16437;41.836;23.480;2022-07-23T02:07:41;27.00;40.40
29479;DHT22;16437;41.836;23.480;2022-07-23T02:13:08;27.10;40.40
29479;DHT22;16437;41.836;23.480;2022-07-23T02:18:34;27.00;40.50
29479;DHT22;16437;41.836;23.480;2022-07-23T02:24:01;27.00;40.60
29479;DHT22;16437;41.836;23.480;2022-07-23T02:29:27;27.00;40.60
29479;DHT22;16437;41.836;23.480;2022-07-23T02:34:54;27.00;40.60
29479;DHT22;16437;41.836;23.480;2022-07-23T02:40:21;27.00;40.60
29479;DHT22;16437;41.836;23.480;2022-07-23T02:45:47;26.90;40.50
29479;DHT22;16437;41.836;23.480;2022-07-23T02:51:14;26.90;40.50
29479;DHT22;16437;41.836;23.480;2022-07-23T02:56:40;26.90;40.50
29479;DHT22;16437;41.836;23.480;2022-07-23T03:02:06;26.90;40.50
29479;DHT22;16437;41.836;23.480;2022-07-23T03:07:33;26.90;40.50
29479;DHT22;16437;41.836;23.480;2022-07-23T03:12:59;26.90;40.50
29479;DHT22;16437;41.836;23.480;2022-07-23T03:18:25;26.90;40.50
29479;DHT22;16437;41.836;23.480;2022-07-23T03:23:52;26.90;40.60
29479;DHT22;16437;41.836;23.480;2022-07-23T03:29:18;26.80;40.60
29479;DHT22;16437;41.836;23.480;2022-07-23T03:34:44;26.80;40.60
29479;DHT22;16437;41.836;23.480;2022-07-23T03:40:12;26.80;40.60
29479;DHT22;16437;41.836;23.480;2022-07-23T03:45:38;26.80;40.60
29479;DHT22;16437;41.836;23.480;2022-07-23T03:51:04;26.80;40.70
29479;DHT22;16437;41.836;23.480;2022-07-23T03:56:31;26.80;40.70
29479;DHT22;16437;41.836;23.480;2022-07-23T04:01:57;26.70;40.70
29479;DHT22;16437;41.836;23.480;2022-07-23T04:07:24;26.70;40.60
29479;DHT22;16437;41.836;23.480;2022-07-23T04:12:50;26.70;40.60
29479;DHT22;16437;41.836;23.480;2022-07-23T04:18:17;26.80;40.60
29479;DHT22;16437;41.836;23.480;2022-07-23T04:23:45;26.70;40.40
29479;DHT22;16437;41.836;23.480;2022-07-23T04:29:12;26.80;40.40
29479;DHT22;16437;41.836;23.480;2022-07-23T04:34:38;26.70;40.40
29479;DHT22;16437;41.836;23.480;2022-07-23T04:40:05;26.70;40.50
29479;DHT22;16437;41.836;23.480;2022-07-23T04:45:32;26.70;40.50
29479;DHT22;16437;41.836;23.480;2022-07-23T04:50:58;26.70;40.50
29479;DHT22;16437;41.836;23.480;2022-07-23T04:56:25;26.70;40.60
29479;DHT22;16437;41.836;23.480;2022-07-23T05:01:51;26.70;40.60
29479;DHT22;16437;41.836;23.480;2022-07-23T05:07:18;26.70;40.60
29479;DHT22;16437;41.836;23.480;2022-07-23T05:12:44;26.70;40.60
29479;DHT22;16437;41.836;23.480;2022-07-23T05:18:11;26.70;40.60
29479;DHT22;16437;41.836;23.480;2022-07-23T05:23:37;26.70;40.60
29479;DHT22;16437;41.836;23.480;2022-07-23T05:29:04;26.60;40.60
29479;DHT22;16437;41.836;23.480;2022-07-23T05:34:31;26.70;40.70
29479;DHT22;16437;41.836;23.480;2022-07-23T05:40:06;26.70;40.70
29479;DHT22;16437;41.836;23.480;2022-07-23T05:45:31;26.60;40.70
29479;DHT22;16437;41.836;23.480;2022-07-23T05:50:58;26.60;40.70
29479;DHT22;16437;41.836;23.480;2022-07-23T05:56:25;26.60;40.70
29479;DHT22;16437;41.836;23.480;2022-07-23T06:01:52;26.60;40.70
29479;DHT22;16437;41.836;23.480;2022-07-23T06:07:18;26.60;40.70
29479;DHT22;16437;41.836;23.480;2022-07-23T06:12:45;26.70;40.80
29479;DHT22;16437;41.836;23.480;2022-07-23T06:18:11;26.70;40.80
29479;DHT22;16437;41.836;23.480;2022-07-23T06:23:37;26.60;40.80
29479;DHT22;16437;41.836;23.480;2022-07-23T06:29:04;26.70;40.80
29479;DHT22;16437;41.836;23.480;2022-07-23T06:34:30;26.70;40.90
29479;DHT22;16437;41.836;23.480;2022-07-23T06:39:57;26.60;40.90
29479;DHT22;16437;41.836;23.480;2022-07-23T06:45:23;26.70;40.90
29479;DHT22;16437;41.836;23.480;2022-07-23T06:50:50;26.70;41.00
29479;DHT22;16437;41.836;23.480;2022-07-23T06:56:18;26.70;40.90
29479;DHT22;16437;41.836;23.480;2022-07-23T07:01:44;26.60;41.00
29479;DHT22;16437;41.836;23.480;2022-07-23T07:07:11;26.60;41.10
29479;DHT22;16437;41.836;23.480;2022-07-23T07:12:37;26.70;41.10
29479;DHT22;16437;41.836;23.480;2022-07-23T07:18:03;26.60;41.20
29479;DHT22;16437;41.836;23.480;2022-07-23T07:23:30;26.70;41.30
29479;DHT22;16437;41.836;23.480;2022-07-23T07:28:56;26.70;41.50
29479;DHT22;16437;41.836;23.480;2022-07-23T07:34:23;26.70;41.60
29479;DHT22;16437;41.836;23.480;2022-07-23T07:39:50;26.70;41.70
29479;DHT22;16437;41.836;23.480;2022-07-23T07:45:17;26.70;41.80
29479;DHT22;16437;41.836;23.480;2022-07-23T07:50:45;26.70;41.80
29479;DHT22;16437;41.836;23.480;2022-07-23T07:56:11;26.80;41.80
29479;DHT22;16437;41.836;23.480;2022-07-23T08:01:38;26.80;41.90
29479;DHT22;16437;41.836;23.480;2022-07-23T08:07:04;26.70;41.90
29479;DHT22;16437;41.836;23.480;2022-07-23T08:12:42;26.80;41.90
29479;DHT22;16437;41.836;23.480;2022-07-23T08:18:10;26.70;41.80
29479;DHT22;16437;41.836;23.480;2022-07-23T08:23:37;26.80;41.90
29479;DHT22;16437;41.836;23.480;2022-07-23T08:29:04;26.80;41.90
29479;DHT22;16437;41.836;23.480;2022-07-23T08:34:30;26.80;41.90
29479;DHT22;16437;41.836;23.480;2022-07-23T08:39:57;26.80;41.90
29479;DHT22;16437;41.836;23.480;2022-07-23T08:45:25;26.80;42.00
29479;DHT22;16437;41.836;23.480;2022-07-23T08:50:53;26.80;42.10
29479;DHT22;16437;41.836;23.480;2022-07-23T08:56:20;26.80;42.10
29479;DHT22;16437;41.836;23.480;2022-07-23T09:01:47;26.80;42.20
29479;DHT22;16437;41.836;23.480;2022-07-23T09:07:13;26.80;42.20
29479;DHT22;16437;41.836;23.480;2022-07-23T09:12:40;26.90;42.30
29479;DHT22;16437;41.836;23.480;2022-07-23T09:18:06;26.90;42.30
29479;DHT22;16437;41.836;23.480;2022-07-23T09:23:44;26.90;42.30
29479;DHT22;16437;41.836;23.480;2022-07-23T09:29:19;26.90;42.30
29479;DHT22;16437;41.836;23.480;2022-07-23T09:34:49;27.00;42.30
29479;DHT22;16437;41.836;23.480;2022-07-23T09:40:15;27.00;42.30
29479;DHT22;16437;41.836;23.480;2022-07-23T09:45:43;27.00;42.20
29479;DHT22;16437;41.836;23.480;2022-07-23T09:51:09;27.00;42.10
29479;DHT22;16437;41.836;23.480;2022-07-23T09:56:37;27.00;42.10
29479;DHT22;16437;41.836;23.480;2022-07-23T10:02:08;27.10;42.00
29479;DHT22;16437;41.836;23.480;2022-07-23T10:07:39;27.10;42.00
29479;DHT22;16437;41.836;23.480;2022-07-23T10:13:07;27.20;41.90
29479;DHT22;16437;41.836;23.480;2022-07-23T10:18:46;27.20;42.00
29479;DHT22;16437;41.836;23.480;2022-07-23T10:41:39;27.20;42.00
29479;DHT22;16437;41.836;23.480;2022-07-23T10:47:06;27.30;42.10
29479;DHT22;16437;41.836;23.480;2022-07-23T10:52:36;27.30;42.00
29479;DHT22;16437;41.836;23.480;2022-07-23T10:58:05;27.30;41.90
29479;DHT22;16437;41.836;23.480;2022-07-23T11:03:36;27.40;41.80
29479;DHT22;16437;41.836;23.480;2022-07-23T11:15:07;27.40;41.60
29479;DHT22;16437;41.836;23.480;2022-07-23T11:20:34;27.50;41.60
29479;DHT22;16437;41.836;23.480;2022-07-23T11:26:00;27.50;41.60
29479;DHT22;16437;41.836;23.480;2022-07-23T11:31:27;27.50;41.50
29479;DHT22;16437;41.836;23.480;2022-07-23T11:36:53;27.50;41.50
29479;DHT22;16437;41.836;23.480;2022-07-23T11:42:20;27.50;41.50
29479;DHT22;16437;41.836;23.480;2022-07-23T11:47:48;27.60;41.40
29479;DHT22;16437;41.836;23.480;2022-07-23T11:53:26;27.60;41.30
29479;DHT22;16437;41.836;23.480;2022-07-23T11:58:55;27.60;41.10
29479;DHT22;16437;41.836;23.480;2022-07-23T12:04:22;27.60;41.00
29479;DHT22;16437;41.836;23.480;2022-07-23T12:09:49;27.70;40.90
29479;DHT22;16437;41.836;23.480;2022-07-23T12:15:22;27.80;40.80
29479;DHT22;16437;41.836;23.480;2022-07-23T12:20:51;27.80;40.80
29479;DHT22;16437;41.836;23.480;2022-07-23T12:26:18;27.80;40.70
29479;DHT22;16437;41.836;23.480;2022-07-23T12:31:44;27.80;40.80
29479;DHT22;16437;41.836;23.480;2022-07-23T12:37:36;27.80;40.90
29479;DHT22;16437;41.836;23.480;2022-07-23T12:43:08;27.90;40.90
29479;DHT22;16437;41.836;23.480;2022-07-23T12:49:00;27.90;40.90
29479;DHT22;16437;41.836;23.480;2022-07-23T12:54:08;28.00;40.80
29479;DHT22;16437;41.836;23.480;2022-07-23T12:59:35;28.00;40.70
29479;DHT22;16437;41.836;23.480;2022-07-23T13:05:03;28.10;40.60
29479;DHT22;16437;41.836;23.480;2022-07-23T13:10:30;28.10;40.60
29479;DHT22;16437;41.836;23.480;2022-07-23T13:15:57;28.20;40.60
29479;DHT22;16437;41.836;23.480;2022-07-23T13:21:24;28.20;40.60
29479;DHT22;16437;41.836;23.480;2022-07-23T13:26:50;28.20;40.80
29479;DHT22;16437;41.836;23.480;2022-07-23T13:32:17;28.20;41.10
29479;DHT22;16437;41.836;23.480;2022-07-23T13:37:43;28.30;41.20
29479;DHT22;16437;41.836;23.480;2022-07-23T13:43:13;28.30;41.30
29479;DHT22;16437;41.836;23.480;2022-07-23T13:48:39;28.40;41.30
29479;DHT22;16437;41.836;23.480;2022-07-23T13:54:06;28.40;41.20
29479;DHT22;16437;41.836;23.480;2022-07-23T13:59:32;28.40;41.20
29479;DHT22;16437;41.836;23.480;2022-07-23T14:04:59;28.50;41.20
29479;DHT22;16437;41.836;23.480;2022-07-23T14:10:26;28.40;41.30
29479;DHT22;16437;41.836;23.480;2022-07-23T14:15:52;28.50;41.30
29479;DHT22;16437;41.836;23.480;2022-07-23T14:21:19;28.50;41.30
29479;DHT22;16437;41.836;23.480;2022-07-23T14:26:45;28.50;41.50
29479;DHT22;16437;41.836;23.480;2022-07-23T14:32:12;28.60;41.60
29479;DHT22;16437;41.836;23.480;2022-07-23T14:37:39;28.70;41.60
29479;DHT22;16437;41.836;23.480;2022-07-23T14:43:05;28.60;41.60
29479;DHT22;16437;41.836;23.480;2022-07-23T14:48:32;28.60;41.60
29479;DHT22;16437;41.836;23.480;2022-07-23T14:53:59;28.70;41.60
29479;DHT22;16437;41.836;23.480;2022-07-23T14:59:25;28.70;41.50
29479;DHT22;16437;41.836;23.480;2022-07-23T15:04:52;28.70;41.50
29479;DHT22;16437;41.836;23.480;2022-07-23T15:10:18;28.80;41.40
29479;DHT22;16437;41.836;23.480;2022-07-23T15:15:45;28.90;41.30
29479;DHT22;16437;41.836;23.480;2022-07-23T15:21:12;28.80;41.10
29479;DHT22;16437;41.836;23.480;2022-07-23T15:26:38;28.90;40.90
29479;DHT22;16437;41.836;23.480;2022-07-23T15:32:05;28.90;40.80
29479;DHT22;16437;41.836;23.480;2022-07-23T15:37:31;28.90;40.60
29479;DHT22;16437;41.836;23.480;2022-07-23T15:42:58;28.90;40.50
29479;DHT22;16437;41.836;23.480;2022-07-23T15:48:25;28.90;40.40
29479;DHT22;16437;41.836;23.480;2022-07-23T15:53:51;28.90;40.30
29479;DHT22;16437;41.836;23.480;2022-07-23T15:59:18;28.90;40.20
29479;DHT22;16437;41.836;23.480;2022-07-23T16:04:44;28.90;40.20
29479;DHT22;16437;41.836;23.480;2022-07-23T16:10:11;28.90;40.00
29479;DHT22;16437;41.836;23.480;2022-07-23T16:15:38;28.90;39.70
29479;DHT22;16437;41.836;23.480;2022-07-23T16:21:06;28.80;39.60
29479;DHT22;16437;41.836;23.480;2022-07-23T16:26:32;28.90;39.60
29479;DHT22;16437;41.836;23.480;2022-07-23T16:31:59;28.90;39.50
29479;DHT22;16437;41.836;23.480;2022-07-23T16:37:25;28.80;39.50
29479;DHT22;16437;41.836;23.480;2022-07-23T16:42:51;28.90;39.60
29479;DHT22;16437;41.836;23.480;2022-07-23T16:48:18;28.80;39.70
29479;DHT22;16437;41.836;23.480;2022-07-23T16:53:44;28.80;39.70
29479;DHT22;16437;41.836;23.480;2022-07-23T16:59:11;28.80;39.80
29479;DHT22;16437;41.836;23.480;2022-07-23T17:04:37;28.90;39.80
29479;DHT22;16437;41.836;23.480;2022-07-23T17:10:05;28.80;39.80
29479;DHT22;16437;41.836;23.480;2022-07-23T17:15:32;28.80;39.90
29479;DHT22;16437;41.836;23.480;2022-07-23T17:21:00;28.80;40.00
29479;DHT22;16437;41.836;23.480;2022-07-23T17:26:29;28.70;40.00
29479;DHT22;16437;41.836;23.480;2022-07-23T17:31:57;28.80;39.90
29479;DHT22;16437;41.836;23.480;2022-07-23T17:37:23;28.80;40.00
29479;DHT22;16437;41.836;23.480;2022-07-23T17:42:50;28.70;40.10
29479;DHT22;16437;41.836;23.480;2022-07-23T17:48:16;28.70;40.10
29479;DHT22;16437;41.836;23.480;2022-07-23T17:53:43;28.70;40.10
29479;DHT22;16437;41.836;23.480;2022-07-23T17:59:09;28.70;40.20
29479;DHT22;16437;41.836;23.480;2022-07-23T18:04:36;28.70;40.40
29479;DHT22;16437;41.836;23.480;2022-07-23T18:10:03;28.70;40.40
29479;DHT22;16437;41.836;23.480;2022-07-23T18:15:29;28.70;40.40
29479;DHT22;16437;41.836;23.480;2022-07-23T18:20:56;28.70;40.40
29479;DHT22;16437;41.836;23.480;2022-07-23T18:26:23;28.70;40.40
29479;DHT22;16437;41.836;23.480;2022-07-23T18:31:49;28.70;40.40
29479;DHT22;16437;41.836;23.480;2022-07-23T18:37:16;28.70;40.40
29479;DHT22;16437;41.836;23.480;2022-07-23T18:42:42;28.70;40.40
29479;DHT22;16437;41.836;23.480;2022-07-23T18:48:09;28.70;40.40
29479;DHT22;16437;41.836;23.480;2022-07-23T18:53:35;28.70;40.40
29479;DHT22;16437;41.836;23.480;2022-07-23T18:59:02;28.60;40.30
29479;DHT22;16437;41.836;23.480;2022-07-23T19:04:30;28.70;40.20
29479;DHT22;16437;41.836;23.480;2022-07-23T19:09:57;28.70;40.20
29479;DHT22;16437;41.836;23.480;2022-07-23T19:15:23;28.70;40.10
29479;DHT22;16437;41.836;23.480;2022-07-23T19:20:50;28.60;40.00
29479;DHT22;16437;41.836;23.480;2022-07-23T19:26:16;28.70;40.00
29479;DHT22;16437;41.836;23.480;2022-07-23T19:31:43;28.60;39.90
29479;DHT22;16437;41.836;23.480;2022-07-23T19:37:09;28.60;39.80
29479;DHT22;16437;41.836;23.480;2022-07-23T19:42:40;28.60;39.70
29479;DHT22;16437;41.836;23.480;2022-07-23T19:48:06;28.60;39.60
29479;DHT22;16437;41.836;23.480;2022-07-23T19:53:33;28.60;39.50
29479;DHT22;16437;41.836;23.480;2022-07-23T19:58:59;28.60;39.40
29479;DHT22;16437;41.836;23.480;2022-07-23T20:04:26;28.60;39.30
29479;DHT22;16437;41.836;23.480;2022-07-23T20:09:52;28.60;39.30
29479;DHT22;16437;41.836;23.480;2022-07-23T20:15:19;28.60;39.20
29479;DHT22;16437;41.836;23.480;2022-07-23T20:20:45;28.50;39.10
29479;DHT22;16437;41.836;23.480;2022-07-23T20:26:12;28.50;39.00
29479;DHT22;16437;41.836;23.480;2022-07-23T20:31:39;28.40;38.90
29479;DHT22;16437;41.836;23.480;2022-07-23T20:37:06;28.50;38.70
29479;DHT22;16437;41.836;23.480;2022-07-23T20:42:32;28.50;38.60
29479;DHT22;16437;41.836;23.480;2022-07-23T20:47:58;28.40;38.50
29479;DHT22;16437;41.836;23.480;2022-07-23T20:53:25;28.40;38.40
29479;DHT22;16437;41.836;23.480;2022-07-23T20:58:51;28.40;38.30
29479;DHT22;16437;41.836;23.480;2022-07-23T21:04:18;28.40;38.40
29479;DHT22;16437;41.836;23.480;2022-07-23T21:09:45;28.30;38.60
29479;DHT22;16437;41.836;23.480;2022-07-23T21:15:11;28.30;38.50
29479;DHT22;16437;41.836;23.480;2022-07-23T21:20:38;28.30;38.60
29479;DHT22;16437;41.836;23.480;2022-07-23T21:26:23;28.30;38.70
29479;DHT22;16437;41.836;23.480;2022-07-23T21:31:50;28.30;38.80
29479;DHT22;16437;41.836;23.480;2022-07-23T21:37:18;28.30;38.90
29479;DHT22;16437;41.836;23.480;2022-07-23T21:42:44;28.20;39.00
29479;DHT22;16437;41.836;23.480;2022-07-23T21:48:11;28.20;39.20
29479;DHT22;16437;41.836;23.480;2022-07-23T21:53:38;28.20;39.30
29479;DHT22;16437;41.836;23.480;2022-07-23T21:59:04;28.20;39.30
29479;DHT22;16437;41.836;23.480;2022-07-23T22:04:31;28.20;39.40
29479;DHT22;16437;41.836;23.480;2022-07-23T22:09:57;28.20;39.50
29479;DHT22;16437;41.836;23.480;2022-07-23T22:15:24;28.20;39.50
29479;DHT22;16437;41.836;23.480;2022-07-23T22:20:51;28.20;39.50
29479;DHT22;16437;41.836;23.480;2022-07-23T22:26:19;28.20;39.60
29479;DHT22;16437;41.836;23.480;2022-07-23T22:31:45;28.20;39.50
29479;DHT22;16437;41.836;23.480;2022-07-23T22:37:12;28.20;39.60
29479;DHT22;16437;41.836;23.480;2022-07-23T22:42:39;28.10;39.60
29479;DHT22;16437;41.836;23.480;2022-07-23T22:48:06;28.10;39.60
29479;DHT22;16437;41.836;23.480;2022-07-23T22:53:32;28.10;39.60
29479;DHT22;16437;41.836;23.480;2022-07-23T22:58:59;28.10;39.50
29479;DHT22;16437;41.836;23.480;2022-07-23T23:04:25;28.10;39.50
29479;DHT22;16437;41.836;23.480;2022-07-23T23:09:52;28.00;39.50
29479;DHT22;16437;41.836;23.480;2022-07-23T23:15:20;28.00;39.50
29479;DHT22;16437;41.836;23.480;2022-07-23T23:20:46;28.00;39.40
29479;DHT22;16437;41.836;23.480;2022-07-23T23:26:13;28.00;39.40
29479;DHT22;16437;41.836;23.480;2022-07-23T23:31:39;28.00;39.30
29479;DHT22;16437;41.836;23.480;2022-07-23T23:37:06;28.00;39.30
29479;DHT22;16437;41.836;23.480;2022-07-23T23:42:33;28.00;39.30
29479;DHT22;16437;41.836;23.480;2022-07-23T23:48:00;28.00;39.40
29479;DHT22;16437;41.836;23.480;2022-07-23T23:53:26;28.00;39.40
29479;DHT22;16437;41.836;23.480;2022-07-23T23:58:53;27.90;39.40
